CheckWX is a tool to help pilots better visualize weather data.  It is not intended as a substitute for an official pre-flight weather briefing.

20:31:28 UTC

KBVU METAR
Boulder City Municipal Airport
Boulder City, Nevada, USA
Current

16 mins ago

KBVU 182015Z AUTO 33011G19KT 10SM CLR 08/M06 A2997 RMK AO2
Observed
Feb-18 @ 20:15 UTC
Wind
  • 330° at 11 KTS
  • Gusting to 19 KTS
Visibility
10 SM
Flight Rules
VFR
Cloud Levels
  • Clear skies
Temperature
C / 46°F
Dewpoint
-6°C / 21°F
Humidity
37%
Altimeter
29.97" Hg
Pressure
1014.92 hPa
Previous

36 mins ago

KBVU 181955Z AUTO 35012KT 10SM CLR 08/M06 A2998 RMK AO2
Observed
Feb-18 @ 19:55 UTC
Wind
  • 350° at 12 KTS
Visibility
10 SM
Flight Rules
VFR
Cloud Levels
  • Clear skies
Temperature
C / 46°F
Dewpoint
-6°C / 21°F
Humidity
37%
Altimeter
29.98" Hg
Pressure
1015.22 hPa
Previous

56 mins ago

KBVU 181935Z AUTO 32011G17KT 10SM CLR 08/M06 A2999 RMK AO2
Observed
Feb-18 @ 19:35 UTC
Wind
  • 320° at 11 KTS
  • Gusting to 17 KTS
Visibility
10 SM
Flight Rules
VFR
Cloud Levels
  • Clear skies
Temperature
C / 46°F
Dewpoint
-6°C / 21°F
Humidity
37%
Altimeter
29.99" Hg
Pressure
1015.62 hPa